createdAt,value
2018-07-13T00:01:02.193Z,57.70
2018-07-13T00:03:30.155Z,57.40
2018-07-13T00:05:58.180Z,57.90
2018-07-13T00:08:32.088Z,57.60
2018-07-13T00:11:00.217Z,57.90
2018-07-13T00:13:28.228Z,57.80
2018-07-13T00:16:00.035Z,57.70
2018-07-13T00:18:28.519Z,57.70
2018-07-13T00:20:56.524Z,57.40
2018-07-13T00:23:24.521Z,57.50
2018-07-13T00:25:52.871Z,58.10
2018-07-13T00:28:20.891Z,57.80
2018-07-13T00:30:48.883Z,57.80
2018-07-13T00:33:16.814Z,58.10
2018-07-13T00:35:44.895Z,57.80
2018-07-13T00:38:12.872Z,57.60
2018-07-13T00:40:41.035Z,57.90
2018-07-13T00:43:09.055Z,58.10
2018-07-13T00:45:37.179Z,57.80
2018-07-13T00:48:09.437Z,58.30
2018-07-13T00:50:37.411Z,58.00
2018-07-13T00:53:05.463Z,57.90
2018-07-13T00:55:33.389Z,58.10
2018-07-13T00:58:01.561Z,58.20
2018-07-13T01:00:31.501Z,58.30
2018-07-13T01:03:00.356Z,58.40
2018-07-13T01:05:28.530Z,58.20
2018-07-13T01:07:56.482Z,58.00
2018-07-13T01:10:24.736Z,59.40
2018-07-13T01:15:50.976Z,58.80
2018-07-13T01:18:18.937Z,58.80
2018-07-13T01:20:46.956Z,58.50
2018-07-13T01:23:14.878Z,58.70
2018-07-13T01:25:42.889Z,58.20
2018-07-13T01:28:10.859Z,58.30
2018-07-13T01:30:38.950Z,58.50
2018-07-13T01:33:07.069Z,58.70
2018-07-13T01:35:35.228Z,59.20
2018-07-13T01:38:03.332Z,58.30
2018-07-13T01:40:31.374Z,58.20
2018-07-13T01:42:59.240Z,58.50
2018-07-13T01:45:27.242Z,58.50
2018-07-13T01:47:55.237Z,58.90
2018-07-13T01:50:23.293Z,59.00
2018-07-13T01:52:51.274Z,58.80
2018-07-13T01:55:19.205Z,59.10
2018-07-13T01:57:47.215Z,59.00
2018-07-13T02:00:46.450Z,58.90
2018-07-13T02:03:28.408Z,59.80
2018-07-13T02:12:37.383Z,61.00
2018-07-13T02:15:25.984Z,60.20
2018-07-13T02:18:11.436Z,60.50
2018-07-13T08:24:31.077Z,58.50
2018-07-13T08:27:02.953Z,58.60
2018-07-13T08:29:34.096Z,57.90
2018-07-13T08:32:02.166Z,57.50
2018-07-13T08:34:30.022Z,54.80
2018-07-13T08:36:57.985Z,57.10
2018-07-13T08:39:33.530Z,57.10
2018-07-13T08:42:01.615Z,57.90
2018-07-13T08:44:29.636Z,57.50
2018-07-13T08:46:57.776Z,56.00
2018-07-13T08:49:25.749Z,54.80
2018-07-13T08:51:53.862Z,53.70
2018-07-13T08:54:21.968Z,54.60
2018-07-13T08:56:51.084Z,54.60
2018-07-13T08:59:19.123Z,54.40
2018-07-13T09:01:47.119Z,53.20
2018-07-13T09:04:15.093Z,47.70
2018-07-13T09:06:43.090Z,49.30
2018-07-13T09:09:13.519Z,49.50
2018-07-13T09:11:49.549Z,51.10
2018-07-13T09:14:17.458Z,51.70
2018-07-13T09:16:45.297Z,52.80
2018-07-13T09:19:13.343Z,49.50
2018-07-13T09:21:41.188Z,48.80
2018-07-13T09:24:09.376Z,49.30
2018-07-13T09:26:37.539Z,48.80
2018-07-13T09:29:06.095Z,49.10
2018-07-13T09:31:34.236Z,48.90
2018-07-13T09:34:02.487Z,50.10
2018-07-13T09:36:30.554Z,49.00
2018-07-13T09:38:58.551Z,45.40
2018-07-13T09:41:26.766Z,46.60
2018-07-13T09:43:54.969Z,47.00
2018-07-13T09:46:23.101Z,47.40
2018-07-13T09:48:51.220Z,46.60
2018-07-13T09:51:19.440Z,48.40
2018-07-13T09:53:47.677Z,46.50
2018-07-13T09:56:15.808Z,47.20
2018-07-13T09:58:44.130Z,44.70
2018-07-13T10:01:18.583Z,44.30
2018-07-13T10:03:54.985Z,44.40
2018-07-13T10:06:23.352Z,44.90
2018-07-13T10:08:51.458Z,43.10
2018-07-13T10:11:19.452Z,43.60
2018-07-13T10:13:47.693Z,43.40
2018-07-13T10:16:15.799Z,43.70
2018-07-13T10:18:44.036Z,43.50
2018-07-13T10:21:12.277Z,42.30
2018-07-13T10:23:41.274Z,43.50
2018-07-13T10:29:53.618Z,41.60
2018-07-13T10:32:21.733Z,42.60
2018-07-13T10:34:50.913Z,40.70
2018-07-13T10:37:19.773Z,42.50
2018-07-13T10:39:51.597Z,41.50
2018-07-13T10:42:22.375Z,40.30
2018-07-13T10:44:51.765Z,40.10
2018-07-13T10:47:22.605Z,41.20
2018-07-13T10:49:56.940Z,39.90
2018-07-13T10:52:27.821Z,41.70
2018-07-13T10:55:00.146Z,40.20
2018-07-13T10:57:40.010Z,40.00
2018-07-13T11:03:01.304Z,38.80
2018-07-13T11:05:31.970Z,38.30
2018-07-13T11:08:04.360Z,39.30
2018-07-13T11:10:32.143Z,40.00
2018-07-13T11:13:07.676Z,40.30
2018-07-13T11:15:35.381Z,38.80
2018-07-13T11:18:03.163Z,39.80
2018-07-13T11:20:30.807Z,38.50
2018-07-13T11:22:58.567Z,37.40
2018-07-13T11:25:26.225Z,36.60
2018-07-13T11:27:53.990Z,37.90
2018-07-13T11:30:21.732Z,38.50
2018-07-13T11:32:49.479Z,40.30
2018-07-13T11:35:17.158Z,38.30
2018-07-13T11:37:44.864Z,39.20
2018-07-13T11:40:19.607Z,39.40
2018-07-13T11:42:47.372Z,38.50
2018-07-13T11:45:15.165Z,36.80
2018-07-13T11:47:42.960Z,37.10
2018-07-13T11:50:10.634Z,36.50
2018-07-13T11:52:38.404Z,38.50
2018-07-13T11:55:07.073Z,39.40
2018-07-13T11:57:34.778Z,38.60
2018-07-13T12:00:02.639Z,38.40
2018-07-13T12:02:30.341Z,38.60
2018-07-13T12:04:58.028Z,39.00
2018-07-13T12:07:25.894Z,38.20
2018-07-13T12:09:53.617Z,38.30
2018-07-13T12:12:21.371Z,39.30
2018-07-13T12:14:49.216Z,37.30
2018-07-13T12:17:17.039Z,37.60
2018-07-13T12:19:57.059Z,38.50
2018-07-13T12:22:24.751Z,38.80
2018-07-13T12:24:52.534Z,39.00
2018-07-13T12:27:20.278Z,36.20
2018-07-13T12:29:47.931Z,36.10
2018-07-13T12:32:15.810Z,36.50
2018-07-13T12:34:45.942Z,37.40
2018-07-13T12:37:20.513Z,38.30
2018-07-13T12:39:48.647Z,36.10
2018-07-13T12:42:17.375Z,35.80
2018-07-13T12:44:45.361Z,34.80
2018-07-13T12:47:13.539Z,36.70
2018-07-13T12:49:41.436Z,34.00
2018-07-13T12:52:09.519Z,34.10
2018-07-13T12:54:37.564Z,35.60
2018-07-13T12:57:05.474Z,35.70
2018-07-13T12:59:34.560Z,35.90
2018-07-13T13:02:02.446Z,34.60
2018-07-13T13:04:30.496Z,34.90
2018-07-13T13:06:58.474Z,33.80
2018-07-13T13:09:26.356Z,33.60
2018-07-13T13:11:54.486Z,33.80
2018-07-13T13:14:22.701Z,36.10
2018-07-13T13:16:50.627Z,35.60
2018-07-13T13:19:18.672Z,34.20
2018-07-13T13:21:47.896Z,35.10
2018-07-13T13:24:16.179Z,36.20
2018-07-13T13:26:44.308Z,33.50
2018-07-13T13:29:12.382Z,35.20
2018-07-13T13:31:40.324Z,33.50
2018-07-13T13:34:08.459Z,33.80
2018-07-13T13:36:36.483Z,35.10
2018-07-13T13:39:04.639Z,35.50
2018-07-13T13:41:32.720Z,34.20
2018-07-13T13:44:00.760Z,34.30
2018-07-13T13:46:28.730Z,34.60
2018-07-13T13:48:56.830Z,35.20
2018-07-13T13:51:24.887Z,34.00
2018-07-13T13:53:52.978Z,34.10
2018-07-13T13:56:21.055Z,34.50
2018-07-13T13:58:49.160Z,35.70
2018-07-13T14:01:17.094Z,34.20
2018-07-13T14:03:45.133Z,33.20
2018-07-13T14:06:13.073Z,34.60
2018-07-13T14:08:40.992Z,33.20
2018-07-13T14:11:09.051Z,35.10
2018-07-13T14:13:36.909Z,33.40
2018-07-13T14:16:05.192Z,33.10
2018-07-13T14:18:33.221Z,34.40
2018-07-13T14:21:01.234Z,34.40
2018-07-13T14:23:29.171Z,34.20
2018-07-13T14:25:57.224Z,33.80
2018-07-13T14:28:25.353Z,35.30
2018-07-13T14:30:53.280Z,35.20
2018-07-13T14:33:21.398Z,35.70
2018-07-13T14:35:49.601Z,33.50
2018-07-13T14:38:17.821Z,34.80
2018-07-13T14:40:46.316Z,34.10
2018-07-13T14:43:14.660Z,32.90
2018-07-13T14:45:42.834Z,31.70
2018-07-13T14:48:11.863Z,32.10
2018-07-13T14:50:39.985Z,32.80
2018-07-13T14:53:08.037Z,32.50
2018-07-13T14:55:35.998Z,32.70
2018-07-13T14:58:03.999Z,32.40
2018-07-13T15:00:32.124Z,33.60
2018-07-13T15:03:00.083Z,33.30
2018-07-13T15:05:28.072Z,34.30
2018-07-13T15:07:56.017Z,34.00
2018-07-13T15:10:24.098Z,34.80
2018-07-13T15:12:52.181Z,33.50
2018-07-13T15:15:20.315Z,34.70
2018-07-13T15:17:52.490Z,32.70
2018-07-13T15:20:20.584Z,31.30
2018-07-13T15:22:48.593Z,32.50
2018-07-13T15:25:16.588Z,32.70
2018-07-13T15:27:44.615Z,32.40
2018-07-13T15:30:12.637Z,33.00
2018-07-13T15:32:40.580Z,30.90
2018-07-13T15:35:08.577Z,30.80
2018-07-13T15:37:36.533Z,31.40
2018-07-13T15:40:04.921Z,32.00
2018-07-13T15:42:33.046Z,31.20
2018-07-13T15:45:01.083Z,32.50
2018-07-13T15:47:29.986Z,32.00
2018-07-13T15:49:58.036Z,31.70
2018-07-13T15:52:26.088Z,31.10
2018-07-13T15:54:54.132Z,30.60
2018-07-13T15:57:22.172Z,30.30
2018-07-13T15:59:50.267Z,30.80
2018-07-13T16:02:18.261Z,32.20
2018-07-13T16:04:46.129Z,32.30
2018-07-13T16:07:14.176Z,32.30
2018-07-13T16:09:42.193Z,32.90
2018-07-13T16:12:10.408Z,32.20
2018-07-13T16:14:38.437Z,32.10
2018-07-13T16:17:06.354Z,32.80
2018-07-13T16:19:34.649Z,32.50
2018-07-13T16:22:05.207Z,32.60
2018-07-13T16:24:40.225Z,32.40
2018-07-13T16:27:09.660Z,32.90
2018-07-13T16:29:37.896Z,33.00
2018-07-13T16:32:06.092Z,32.20
2018-07-13T16:34:34.282Z,32.30
2018-07-13T16:37:03.412Z,32.90
2018-07-13T16:39:31.652Z,32.20
2018-07-13T16:41:59.876Z,31.00
2018-07-13T16:44:28.207Z,31.10
2018-07-13T16:46:56.351Z,31.20
2018-07-13T16:49:24.456Z,31.40
2018-07-13T16:51:52.786Z,32.00
2018-07-13T16:54:20.865Z,32.30
2018-07-13T16:56:49.132Z,31.10
2018-07-13T16:59:17.315Z,30.70
2018-07-13T17:01:45.550Z,31.40
2018-07-13T17:04:15.818Z,32.20
2018-07-13T17:06:45.398Z,31.70
2018-07-13T17:09:13.265Z,32.00
2018-07-13T17:11:41.226Z,32.00
2018-07-13T17:14:09.164Z,31.40
2018-07-13T17:16:37.090Z,31.60
2018-07-13T17:19:05.142Z,32.20
2018-07-13T17:21:33.338Z,31.50
2018-07-13T17:24:01.573Z,31.90
2018-07-13T17:26:29.580Z,32.30
2018-07-13T17:28:57.634Z,32.30
2018-07-13T17:31:25.654Z,32.90
2018-07-13T17:33:53.655Z,33.20
2018-07-13T17:36:21.847Z,32.60
2018-07-13T17:38:50.008Z,32.70
2018-07-13T17:41:21.300Z,33.30
2018-07-13T17:43:49.667Z,33.40
2018-07-13T17:46:18.160Z,33.50
2018-07-13T17:48:46.483Z,32.80
2018-07-13T17:51:14.695Z,33.40
2018-07-13T17:53:42.836Z,33.70
2018-07-13T17:56:10.736Z,33.10
2018-07-13T17:58:38.877Z,33.80
2018-07-13T18:01:07.348Z,33.70
2018-07-13T18:03:35.540Z,34.60
2018-07-13T18:06:03.653Z,34.60
2018-07-13T18:08:31.671Z,34.50
2018-07-13T18:10:59.729Z,34.70
2018-07-13T18:13:27.903Z,34.70
2018-07-13T18:15:55.983Z,35.00
2018-07-13T18:18:24.038Z,35.40
